Time;durP1;ratioP1;P1;durP2;ratioP2;P2;SDS_P1;SDS_P2;PMS_P1;PMS_P2;Temp;Humidity;BMP_temperature;BMP_pressure;BME280_temperature;BME280_humidity;BME280_pressure;Samples;Min_cycle;Max_cycle;Signal;HPM_P1;HPM_P2
2024/01/30 00:00:53;;;;;;;0.10;0.10;;;;;;;4.21;100.00;100421.88;5054891;28;20200;-52
2024/01/30 00:03:40;;;;;;;0.10;0.10;;;;;;;4.05;100.00;100432.66;5054821;28;20406;-52
2024/01/30 00:06:26;;;;;;;0.10;0.10;;;;;;;3.83;100.00;100417.31;5053881;28;20204;-52
2024/01/30 00:09:13;;;;;;;0.10;0.10;;;;;;;3.40;100.00;100432.81;5054820;28;20671;-52
2024/01/30 00:12:02;;;;;;;0.10;0.10;;;;;;;3.56;100.00;100415.09;5054832;28;20188;-53
2024/01/30 00:14:48;;;;;;;0.10;0.10;;;;;;;3.38;100.00;100425.00;5039523;28;20204;-52
2024/01/30 00:17:40;;;;;;;0.10;0.10;;;;;;;3.32;100.00;100425.06;5039263;28;20689;-52
2024/01/30 00:20:27;;;;;;;0.10;0.10;;;;;;;3.24;100.00;100423.44;5053326;28;20204;-52
2024/01/30 00:23:14;;;;;;;0.10;0.10;;;;;;;3.22;100.00;100423.47;5054027;28;20201;-52
2024/01/30 00:26:01;;;;;;;0.10;0.10;;;;;;;3.25;100.00;100420.78;5054668;28;20188;-53
2024/01/30 00:28:49;;;;;;;0.10;0.10;;;;;;;3.29;100.00;100419.03;5054553;28;20200;-53
2024/01/30 00:31:36;;;;;;;0.10;0.10;;;;;;;3.69;100.00;100408.81;5054669;28;20200;-52
2024/01/30 00:34:27;;;;;;;0.10;0.10;;;;;;;3.73;100.00;100413.97;5053121;28;20211;-52
2024/01/30 00:37:14;;;;;;;0.10;0.10;;;;;;;3.80;100.00;100421.72;5053854;28;20228;-52
2024/01/30 00:40:01;;;;;;;0.10;0.10;;;;;;;3.96;100.00;100418.84;5054256;28;20247;-52
2024/01/30 00:42:48;;;;;;;0.10;0.10;;;;;;;4.06;100.00;100426.56;5054224;28;20196;-52
2024/01/30 00:45:36;;;;;;;0.10;0.10;;;;;;;3.80;100.00;100417.34;5034306;28;20208;-53
2024/01/30 00:48:23;;;;;;;0.10;0.10;;;;;;;3.48;100.00;100412.63;5034171;28;20197;-52
2024/01/30 00:51:09;;;;;;;0.10;0.10;;;;;;;3.31;100.00;100414.63;5032914;28;20254;-52
2024/01/30 00:53:56;;;;;;;0.10;0.10;;;;;;;3.08;100.00;100418.41;5040793;28;20195;-53
2024/01/30 00:56:43;;;;;;;0.10;0.10;;;;;;;3.12;100.00;100417.50;5053718;28;20215;-52
2024/01/30 00:59:30;;;;;;;0.10;0.10;;;;;;;3.06;100.00;100422.78;5053979;28;20196;-52
2024/01/30 01:02:18;;;;;;;0.10;0.10;;;;;;;3.01;100.00;100421.13;5053911;28;20193;-52
2024/01/30 01:05:06;;;;;;;0.10;0.10;;;;;;;2.95;100.00;100424.69;5051890;28;20235;-53
2024/01/30 01:07:53;;;;;;;0.10;0.10;;;;;;;2.98;100.00;100429.00;5053766;28;20207;-53
2024/01/30 01:10:39;;;;;;;0.10;0.10;;;;;;;3.05;100.00;100420.19;5053716;28;20208;-52
2024/01/30 01:13:26;;;;;;;0.10;0.10;;;;;;;3.02;100.00;100418.50;5053680;28;20204;-53
2024/01/30 01:16:13;;;;;;;0.10;0.10;;;;;;;3.07;100.00;100419.28;5053529;28;20208;-52
2024/01/30 01:19:02;;;;;;;0.13;0.13;;;;;;;2.97;100.00;100428.16;5053704;28;20189;-52
2024/01/30 01:21:48;;;;;;;0.10;0.10;;;;;;;2.96;100.00;100433.41;5053108;28;20662;-52
2024/01/30 01:24:37;;;;;;;0.10;0.10;;;;;;;2.87;100.00;100429.16;5053409;28;20200;-52
2024/01/30 01:27:23;;;;;;;0.10;0.10;;;;;;;2.97;100.00;100429.91;5053586;28;20189;-52
2024/01/30 01:30:14;;;;;;;0.10;0.10;;;;;;;3.03;100.00;100432.44;5053273;28;20192;-53
2024/01/30 01:33:02;;;;;;;0.10;0.10;;;;;;;3.06;100.00;100427.16;5053236;28;20204;-52
2024/01/30 01:35:50;;;;;;;0.10;0.10;;;;;;;3.07;100.00;100434.13;5032117;28;20690;-53
2024/01/30 01:38:37;;;;;;;0.10;0.10;;;;;;;3.30;100.00;100429.47;5033275;28;20200;-51
2024/01/30 01:41:24;;;;;;;0.10;0.10;;;;;;;3.29;100.00;100426.88;5033308;28;20209;-52
2024/01/30 01:44:12;;;;;;;0.10;0.10;;;;;;;3.20;100.00;100421.75;5041497;28;20195;-52
2024/01/30 01:46:59;;;;;;;0.10;0.10;;;;;;;3.25;100.00;100423.41;5052866;28;20188;-52
2024/01/30 01:49:45;;;;;;;0.10;0.10;;;;;;;3.39;100.00;100416.25;5051524;28;20674;-52
2024/01/30 01:52:33;;;;;;;0.10;0.10;;;;;;;3.29;100.00;100417.28;5053078;28;20200;-52
2024/01/30 01:55:24;;;;;;;0.10;0.10;;;;;;;3.28;100.00;100417.25;5052809;28;20303;-52
2024/01/30 01:58:12;;;;;;;0.10;0.10;;;;;;;3.24;100.00;100418.19;5037607;28;20215;-52
2024/01/30 02:01:00;;;;;;;0.10;0.10;;;;;;;3.42;100.00;100407.47;5053109;28;20192;-52
2024/01/30 02:03:47;;;;;;;0.10;0.10;;;;;;;3.42;100.00;100410.09;5052611;28;20231;-52
2024/01/30 02:06:35;;;;;;;0.10;0.10;;;;;;;3.51;100.00;100414.31;5052982;28;20224;-52
2024/01/30 02:09:23;;;;;;;0.10;0.10;;;;;;;3.55;100.00;100411.63;5052964;28;20192;-53
2024/01/30 02:12:10;;;;;;;0.10;0.10;;;;;;;3.66;100.00;100411.44;5052718;28;20295;-52
2024/01/30 02:14:57;;;;;;;0.10;0.10;;;;;;;3.67;100.00;100407.97;5052693;28;20250;-52
2024/01/30 02:17:43;;;;;;;0.10;0.10;;;;;;;3.77;100.00;100409.56;5052479;28;20220;-52
2024/01/30 02:20:32;;;;;;;0.10;0.10;;;;;;;3.42;100.00;100403.09;5051208;28;20270;-53
2024/01/30 02:23:21;;;;;;;0.10;0.10;;;;;;;3.33;100.00;100394.50;5052691;28;20216;-52
2024/01/30 02:26:08;;;;;;;0.10;0.10;;;;;;;3.56;100.00;100400.25;5052217;28;20698;-52
2024/01/30 02:28:55;;;;;;;0.10;0.10;;;;;;;3.59;100.00;100394.13;5051849;28;20231;-53
2024/01/30 02:31:42;;;;;;;0.10;0.10;;;;;;;3.47;100.00;100399.53;5052721;28;20188;-52
2024/01/30 02:34:28;;;;;;;0.10;0.10;;;;;;;3.20;100.00;100404.31;5055326;28;20219;-52
2024/01/30 02:37:15;;;;;;;0.10;0.10;;;;;;;3.04;100.00;100398.41;5056472;28;20222;-52
2024/01/30 02:40:04;;;;;;;0.10;0.10;;;;;;;3.06;100.00;100395.75;5056616;28;20274;-52
2024/01/30 02:42:51;;;;;;;0.10;0.10;;;;;;;2.89;100.00;100398.59;5056553;28;20200;-52
2024/01/30 02:45:38;;;;;;;0.10;0.10;;;;;;;3.11;100.00;100396.56;5056448;28;20204;-52
2024/01/30 02:48:25;;;;;;;0.10;0.10;;;;;;;2.91;100.00;100403.81;5056453;28;20187;-52
2024/01/30 02:51:12;;;;;;;0.10;0.10;;;;;;;2.81;100.00;100398.72;5055136;28;20196;-52
2024/01/30 02:53:59;;;;;;;0.10;0.10;;;;;;;2.78;100.00;100403.09;5056318;28;20199;-52
2024/01/30 02:56:48;;;;;;;0.10;0.10;;;;;;;2.84;100.00;100401.28;5056367;28;20195;-52
2024/01/30 02:59:35;;;;;;;0.10;0.10;;;;;;;3.02;100.00;100405.41;5056291;28;20193;-52
2024/01/30 03:02:22;;;;;;;0.10;0.10;;;;;;;3.01;100.00;100408.91;5056165;28;20231;-52
2024/01/30 03:05:09;;;;;;;0.10;0.10;;;;;;;3.00;100.00;100401.09;5054477;28;20244;-52
2024/01/30 03:07:56;;;;;;;0.10;0.10;;;;;;;2.95;100.00;100405.50;5056160;28;20266;-52
2024/01/30 03:10:43;;;;;;;0.10;0.10;;;;;;;2.91;100.00;100399.47;5056083;28;20266;-52
2024/01/30 03:13:31;;;;;;;0.10;0.10;;;;;;;3.00;100.00;100399.34;5055937;28;20331;-53
2024/01/30 03:16:18;;;;;;;0.10;0.10;;;;;;;3.28;100.00;100389.34;5055882;28;20199;-52
2024/01/30 03:19:07;;;;;;;0.10;0.10;;;;;;;3.16;100.00;100389.50;5054705;28;20220;-52
2024/01/30 03:21:55;;;;;;;0.10;0.10;;;;;;;3.08;100.00;100399.22;5055929;28;20275;-52
2024/01/30 03:24:41;;;;;;;0.10;0.10;;;;;;;3.06;100.00;100390.53;5055714;28;20204;-52
2024/01/30 03:27:28;;;;;;;0.10;0.10;;;;;;;2.82;100.00;100384.75;5055684;28;20188;-52
2024/01/30 03:30:17;;;;;;;0.13;0.13;;;;;;;2.99;100.00;100387.16;5040565;28;20310;-52
2024/01/30 03:33:04;;;;;;;0.10;0.10;;;;;;;2.92;100.00;100384.63;5055610;28;20196;-52
2024/01/30 03:35:51;;;;;;;0.10;0.10;;;;;;;2.84;100.00;100387.34;5034510;28;20196;-53
2024/01/30 03:38:38;;;;;;;0.10;0.10;;;;;;;2.74;100.00;100390.94;5035615;28;20217;-52
2024/01/30 03:41:25;;;;;;;0.10;0.10;;;;;;;2.65;100.00;100389.31;5027419;28;20196;-52
2024/01/30 03:44:12;;;;;;;0.10;0.10;;;;;;;2.61;100.00;100394.59;5054955;28;20666;-52
2024/01/30 03:47:00;;;;;;;0.10;0.10;;;;;;;2.69;100.00;100390.13;5055331;28;20250;-52
2024/01/30 03:49:47;;;;;;;0.10;0.10;;;;;;;2.90;100.00;100391.63;5053991;28;20192;-53
2024/01/30 03:52:33;;;;;;;0.10;0.10;;;;;;;2.75;100.00;100388.31;5055312;28;20199;-52
2024/01/30 03:55:20;;;;;;;0.10;0.10;;;;;;;2.61;100.00;100386.75;5055245;28;20216;-52
2024/01/30 03:58:07;;;;;;;0.10;0.10;;;;;;;2.53;100.00;100387.72;5055043;28;20243;-52
2024/01/30 04:00:54;;;;;;;0.10;0.10;;;;;;;2.61;100.00;100379.78;5055080;28;20250;-52
2024/01/30 04:03:43;;;;;;;0.10;0.10;;;;;;;2.97;100.00;100375.81;5054740;28;20224;-52
2024/01/30 04:06:31;;;;;;;0.10;0.10;;;;;;;3.32;100.00;100369.22;5054984;28;20372;-52
2024/01/30 04:09:18;;;;;;;0.10;0.10;;;;;;;3.42;100.00;100371.66;5055057;28;20192;-53
2024/01/30 04:12:05;;;;;;;0.10;0.10;;;;;;;3.23;100.00;100364.97;5055003;28;20315;-52
2024/01/30 04:14:53;;;;;;;0.10;0.10;;;;;;;3.07;100.00;100366.94;5054772;28;20262;-52
2024/01/30 04:17:40;;;;;;;0.10;0.10;;;;;;;3.25;100.00;100357.09;5054727;28;20442;-52
2024/01/30 04:20:28;;;;;;;0.10;0.10;;;;;;;3.11;100.00;100363.41;5053420;28;20192;-52
2024/01/30 04:23:14;;;;;;;0.10;0.10;;;;;;;3.29;100.00;100358.81;5054637;28;20200;-52
2024/01/30 04:26:01;;;;;;;0.10;0.10;;;;;;;3.84;100.00;100368.38;5034787;28;20308;-52
2024/01/30 04:28:48;;;;;;;0.10;0.10;;;;;;;3.50;100.00;100362.84;5053670;28;20196;-52
2024/01/30 04:31:37;;;;;;;0.10;0.10;;;;;;;3.63;100.00;100365.22;5054408;28;20196;-52
2024/01/30 04:34:24;;;;;;;0.10;0.10;;;;;;;3.85;100.00;100365.72;5052576;28;20635;-52
2024/01/30 04:37:12;;;;;;;0.10;0.10;;;;;;;3.57;100.00;100357.47;5054479;28;20230;-53
2024/01/30 04:39:59;;;;;;;0.10;0.10;;;;;;;3.13;100.00;100363.38;5054310;28;20191;-52
2024/01/30 04:42:46;;;;;;;0.10;0.10;;;;;;;2.61;100.00;100368.47;5054380;28;20239;-53
2024/01/30 04:45:33;;;;;;;0.10;0.10;;;;;;;2.27;100.00;100360.97;5054258;28;20539;-52
2024/01/30 04:48:20;;;;;;;0.10;0.10;;;;;;;2.15;100.00;100361.13;5054153;28;20283;-52
2024/01/30 04:51:06;;;;;;;0.10;0.10;;;;;;;2.38;100.00;100366.94;5052753;28;20208;-52
2024/01/30 04:53:54;;;;;;;0.10;0.10;;;;;;;2.31;100.00;100373.13;5054002;28;20204;-52
2024/01/30 04:56:42;;;;;;;0.10;0.10;;;;;;;2.34;100.00;100367.03;5053372;28;20674;-52
2024/01/30 04:59:29;;;;;;;0.10;0.10;;;;;;;2.33;100.00;100374.00;5053635;28;20710;-52
2024/01/30 05:02:16;;;;;;;0.10;0.10;;;;;;;2.16;100.00;100373.31;5054041;28;20254;-52
2024/01/30 05:05:03;;;;;;;0.10;0.10;;;;;;;2.14;100.00;100375.94;5052046;28;20262;-52
2024/01/30 05:07:50;;;;;;;0.10;0.10;;;;;;;2.43;100.00;100370.41;5053758;28;20243;-52
2024/01/30 05:10:39;;;;;;;0.10;0.10;;;;;;;2.48;100.00;100378.16;5053915;28;20247;-53
2024/01/30 05:13:25;;;;;;;0.10;0.10;;;;;;;2.84;100.00;100374.25;5053592;28;20197;-52
2024/01/30 05:16:13;;;;;;;0.10;0.10;;;;;;;3.18;100.00;100364.16;5033733;28;20256;-53
2024/01/30 05:19:00;;;;;;;0.10;0.10;;;;;;;3.27;100.00;100377.13;5033067;28;20688;-53
2024/01/30 05:21:49;;;;;;;0.10;0.10;;;;;;;3.38;100.00;100371.75;5033557;28;20596;-52
2024/01/30 05:24:37;;;;;;;0.10;0.10;;;;;;;3.53;100.00;100376.75;5041857;28;20199;-52
2024/01/30 05:27:25;;;;;;;0.10;0.10;;;;;;;3.14;100.00;100372.97;5053721;28;20200;-52
2024/01/30 05:30:13;;;;;;;0.10;0.10;;;;;;;3.21;100.00;100373.75;5053221;28;20274;-52
2024/01/30 05:32:59;;;;;;;0.10;0.10;;;;;;;3.32;100.00;100369.22;5053385;28;20200;-52
2024/01/30 05:35:46;;;;;;;0.20;0.20;;;;;;;3.03;100.00;100378.34;5052077;28;20212;-52
2024/01/30 05:38:33;;;;;;;0.10;0.10;;;;;;;3.05;100.00;100386.19;5053088;28;20208;-52
2024/01/30 05:41:20;;;;;;;0.10;0.10;;;;;;;3.02;100.00;100387.09;5053296;28;20193;-52
2024/01/30 05:44:09;;;;;;;0.10;0.10;;;;;;;3.43;100.00;100388.25;5037944;28;20258;-52
2024/01/30 05:46:56;;;;;;;0.10;0.10;;;;;;;3.24;100.00;100381.56;5037813;28;20268;-51
2024/01/30 05:49:43;;;;;;;0.10;0.10;;;;;;;3.44;100.00;100384.75;5036365;28;20331;-52
2024/01/30 05:52:30;;;;;;;0.10;0.10;;;;;;;3.40;100.00;100385.69;5053141;28;20195;-52
2024/01/30 05:55:16;;;;;;;0.10;0.10;;;;;;;3.43;100.00;100388.25;5052944;28;20200;-52
2024/01/30 05:58:04;;;;;;;0.10;0.10;;;;;;;3.14;100.00;100391.28;5052974;28;20259;-52
2024/01/30 06:00:52;;;;;;;0.10;0.10;;;;;;;3.25;100.00;100392.00;5052970;28;20322;-52
2024/01/30 06:03:39;;;;;;;0.10;0.10;;;;;;;3.61;100.00;100393.19;5052670;28;20224;-53
2024/01/30 06:06:26;;;;;;;0.10;0.10;;;;;;;3.48;100.00;100389.06;5032824;28;20275;-52
2024/01/30 06:09:14;;;;;;;0.10;0.10;;;;;;;3.12;100.00;100391.31;5033018;28;20280;-53
2024/01/30 06:12:00;;;;;;;0.10;0.10;;;;;;;3.43;100.00;100390.88;5032973;28;20200;-53
2024/01/30 06:14:47;;;;;;;0.10;0.10;;;;;;;3.13;100.00;100398.28;5041928;28;20208;-53
2024/01/30 06:17:36;;;;;;;0.10;0.10;;;;;;;3.01;100.00;100400.19;5052786;28;20239;-52
2024/01/30 06:20:22;;;;;;;0.10;0.10;;;;;;;3.08;100.00;100391.38;5051024;28;20224;-52
2024/01/30 06:23:10;;;;;;;0.10;0.10;;;;;;;2.82;100.00;100389.09;5052327;28;20239;-52
2024/01/30 06:25:56;;;;;;;0.10;0.10;;;;;;;2.87;100.00;100390.75;5052743;28;20203;-52
2024/01/30 06:28:44;;;;;;;0.10;0.10;;;;;;;3.19;100.00;100394.72;5052642;28;20196;-52
2024/01/30 06:31:31;;;;;;;0.10;0.10;;;;;;;3.16;100.00;100393.00;5052743;28;20192;-52
2024/01/30 06:34:19;;;;;;;0.10;0.10;;;;;;;2.92;100.00;100385.50;5051484;28;20651;-52
2024/01/30 06:37:07;;;;;;;0.10;0.10;;;;;;;2.80;100.00;100385.66;5052074;28;20208;-52
2024/01/30 06:39:53;;;;;;;0.10;0.10;;;;;;;2.64;100.00;100384.97;5032486;28;20228;-52
2024/01/30 06:42:40;;;;;;;0.10;0.10;;;;;;;3.00;100.00;100391.50;5032740;28;20682;-52
2024/01/30 06:45:27;;;;;;;0.10;0.10;;;;;;;3.03;100.00;100385.34;5046452;28;20755;-52
2024/01/30 06:48:14;;;;;;;0.10;0.10;;;;;;;3.16;100.00;100389.50;5052385;28;20196;-53
2024/01/30 06:51:02;;;;;;;0.10;0.10;;;;;;;2.71;100.00;100377.91;5051362;28;20311;-52
2024/01/30 06:53:49;;;;;;;0.10;0.10;;;;;;;2.91;100.00;100375.91;5052375;28;20196;-52
2024/01/30 06:56:36;;;;;;;0.10;0.10;;;;;;;2.54;100.00;100372.88;5052486;28;20217;-53
2024/01/30 06:59:23;;;;;;;0.10;0.10;;;;;;;2.40;100.00;100372.16;5052350;28;20391;-52
2024/01/30 07:02:10;;;;;;;0.10;0.10;;;;;;;2.50;100.00;100385.09;5052419;28;20318;-52
2024/01/30 07:04:56;;;;;;;0.10;0.10;;;;;;;2.43;100.00;100383.47;5050656;28;20228;-52
2024/01/30 07:07:45;;;;;;;0.10;0.10;;;;;;;2.66;100.00;100391.03;5052367;28;20266;-52
2024/01/30 07:10:32;;;;;;;0.10;0.10;;;;;;;2.90;100.00;100392.50;5052311;28;20271;-52
2024/01/30 07:13:19;;;;;;;0.10;0.10;;;;;;;2.70;100.00;100382.28;5052308;28;20204;-53
2024/01/30 07:16:06;;;;;;;0.10;0.10;;;;;;;2.55;100.00;100391.16;5052206;28;20204;-52
2024/01/30 07:18:53;;;;;;;0.10;0.10;;;;;;;3.01;100.00;100389.75;5053902;28;20200;-52
2024/01/30 07:21:40;;;;;;;0.10;0.10;;;;;;;2.91;100.00;100385.50;5055889;28;20615;-52
2024/01/30 07:24:28;;;;;;;0.10;0.10;;;;;;;2.88;100.00;100391.63;5055678;28;20200;-52
2024/01/30 07:27:17;;;;;;;0.10;0.10;;;;;;;2.69;100.00;100390.13;5055692;28;20267;-52
2024/01/30 07:30:05;;;;;;;0.10;0.10;;;;;;;2.56;100.00;100390.28;5055783;28;20316;-52
2024/01/30 07:32:52;;;;;;;0.10;0.10;;;;;;;2.43;100.00;100391.31;5055797;28;20247;-53
2024/01/30 07:35:39;;;;;;;0.10;0.10;;;;;;;2.59;100.00;100387.63;5039073;28;20207;-52
2024/01/30 07:38:26;;;;;;;0.10;0.10;;;;;;;2.79;100.00;100392.59;5055533;28;20235;-52
2024/01/30 07:41:14;;;;;;;0.10;0.10;;;;;;;2.76;100.00;100386.56;5055206;28;20266;-53
2024/01/30 07:44:01;;;;;;;0.10;0.10;;;;;;;2.96;100.00;100394.16;5055386;28;20200;-52
2024/01/30 07:46:48;;;;;;;0.10;0.10;;;;;;;3.05;100.00;100394.03;5054817;28;20231;-52
2024/01/30 07:49:35;;;;;;;0.10;0.10;;;;;;;2.90;100.00;100395.13;5053973;28;20239;-52
2024/01/30 07:52:22;;;;;;;0.10;0.10;;;;;;;2.93;100.00;100395.06;5055284;28;20678;-53
2024/01/30 07:55:09;;;;;;;0.10;0.10;;;;;;;3.48;100.00;100396.06;5054923;28;20204;-52
2024/01/30 07:57:57;;;;;;;0.10;0.10;;;;;;;3.30;100.00;100398.03;5055209;28;20196;-52
2024/01/30 08:00:43;;;;;;;0.10;0.10;;;;;;;3.52;100.00;100397.72;5054861;28;20228;-52
2024/01/30 08:03:30;;;;;;;0.10;0.10;;;;;;;3.36;100.00;100399.69;5054898;28;20224;-53
2024/01/30 08:06:17;;;;;;;0.10;0.10;;;;;;;3.58;100.00;100395.88;5053657;28;20196;-53
2024/01/30 08:09:04;;;;;;;0.10;0.10;;;;;;;3.77;100.00;100393.84;5055054;28;20204;-52
2024/01/30 08:11:51;;;;;;;0.10;0.10;;;;;;;3.91;100.00;100394.44;5054800;28;20267;-52
2024/01/30 08:14:41;;;;;;;0.10;0.10;;;;;;;4.06;100.00;100392.47;5054747;28;20200;-52
2024/01/30 08:17:27;;;;;;;0.10;0.10;;;;;;;3.98;100.00;100406.56;5054446;28;20208;-52
2024/01/30 08:20:14;;;;;;;0.10;0.10;;;;;;;4.17;100.00;100409.75;5053353;28;20228;-52
2024/01/30 08:23:01;;;;;;;0.10;0.10;;;;;;;4.19;100.00;100413.19;5054683;28;20196;-53
2024/01/30 08:25:48;;;;;;;0.10;0.10;;;;;;;4.33;100.00;100407.69;5054574;28;20234;-53
2024/01/30 08:28:35;;;;;;;0.10;0.10;;;;;;;4.38;100.00;100407.63;5054667;28;20196;-53
2024/01/30 08:31:23;;;;;;;0.10;0.10;;;;;;;4.51;100.00;100416.97;5052985;28;20191;-52
2024/01/30 08:34:10;;;;;;;0.10;0.10;;;;;;;4.66;100.00;100421.06;5053139;28;20274;-53
2024/01/30 08:36:57;;;;;;;0.10;0.10;;;;;;;4.52;100.00;100424.81;5054411;28;20675;-53
2024/01/30 08:39:44;;;;;;;0.10;0.10;;;;;;;4.42;100.00;100418.00;5054255;28;20199;-53
2024/01/30 08:42:31;;;;;;;0.10;0.10;;;;;;;4.48;100.00;100414.41;5054381;28;20192;-53
2024/01/30 08:45:18;;;;;;;0.10;0.10;;;;;;;4.58;100.00;100411.59;5054233;28;20310;-52
2024/01/30 08:48:07;;;;;;;0.10;0.10;;;;;;;4.78;100.00;100420.81;5054280;28;20204;-53
2024/01/30 08:50:54;;;;;;;0.00;0.00;;;;;;;4.71;100.00;100408.72;5053031;28;20200;-52
2024/01/30 08:53:41;;;;;;;0.10;0.10;;;;;;;4.87;100.00;100413.63;5054062;28;20259;-52
2024/01/30 08:56:28;;;;;;;0.10;0.10;;;;;;;4.64;100.00;100421.13;5034251;28;20372;-52
2024/01/30 08:59:15;;;;;;;0.10;0.10;;;;;;;4.71;100.00;100417.44;5034122;28;20276;-52
2024/01/30 09:02:03;;;;;;;0.10;0.10;;;;;;;5.01;100.00;100420.34;5033726;28;20240;-52
2024/01/30 09:04:59;;;;;;;0.10;0.10;;;;;;;4.91;100.00;100421.44;5040050;28;20224;-52
2024/01/30 09:07:46;;;;;;;0.10;0.10;;;;;;;5.22;100.00;100414.66;5053767;28;20261;-52
2024/01/30 09:10:33;;;;;;;0.10;0.10;;;;;;;5.01;100.00;100423.84;5053817;28;20234;-52
2024/01/30 09:13:20;;;;;;;0.10;0.10;;;;;;;5.21;100.00;100428.69;5053514;28;20335;-52
2024/01/30 09:16:08;;;;;;;0.10;0.10;;;;;;;5.55;100.00;100434.03;5053553;28;20258;-52
2024/01/30 09:18:55;;;;;;;0.10;0.10;;;;;;;5.24;100.00;100430.38;5052665;28;20196;-52
2024/01/30 09:21:43;;;;;;;0.10;0.10;;;;;;;5.20;100.00;100439.19;5053166;28;20347;-52
2024/01/30 09:24:30;;;;;;;0.10;0.10;;;;;;;5.35;100.00;100439.75;5053473;28;20196;-53
2024/01/30 09:27:17;;;;;;;0.00;0.00;;;;;;;5.37;100.00;100443.19;5053515;28;20215;-52
2024/01/30 09:30:05;;;;;;;0.10;0.10;;;;;;;5.44;100.00;100444.81;5053142;28;20192;-52
2024/01/30 09:32:51;;;;;;;0.10;0.10;;;;;;;5.58;100.00;100433.97;5053323;28;20196;-53
2024/01/30 09:35:38;;;;;;;0.10;0.10;;;;;;;5.74;100.00;100440.59;5051978;28;20199;-53
2024/01/30 09:38:27;;;;;;;0.10;0.10;;;;;;;5.90;100.00;100432.34;5053054;28;20266;-52
2024/01/30 09:41:13;;;;;;;0.10;0.10;;;;;;;5.92;100.00;100435.84;5052742;28;20216;-52
2024/01/30 09:44:03;;;;;;;0.10;0.10;;;;;;;6.06;100.00;100428.47;5053324;28;20199;-52
2024/01/30 09:46:51;;;;;;;0.10;0.10;;;;;;;5.88;100.00;100427.09;5052897;28;20224;-52
2024/01/30 09:49:39;;;;;;;0.10;0.10;;;;;;;6.00;100.00;100428.63;5051791;28;20200;-52
2024/01/30 09:52:27;;;;;;;0.10;0.10;;;;;;;5.91;100.00;100431.50;5053098;28;20287;-52
2024/01/30 09:55:15;;;;;;;0.10;0.10;;;;;;;5.68;100.00;100418.84;5052838;28;20208;-53
2024/01/30 09:58:02;;;;;;;0.10;0.10;;;;;;;5.71;100.00;100422.28;5052725;28;20706;-52
2024/01/30 10:00:49;;;;;;;0.10;0.10;;;;;;;5.67;100.00;100419.75;5052801;28;20362;-52
2024/01/30 10:03:36;;;;;;;0.10;0.10;;;;;;;6.01;100.00;100414.56;5052580;28;20398;-53
2024/01/30 10:06:25;;;;;;;0.10;0.10;;;;;;;6.56;100.00;100424.53;5052758;28;20192;-52
2024/01/30 10:09:13;;;;;;;0.10;0.10;;;;;;;6.64;100.00;100420.81;5052792;28;20203;-52
2024/01/30 10:12:03;;;;;;;0.10;0.10;;;;;;;6.83;100.00;100419.38;5037487;28;20322;-52
2024/01/30 10:14:50;;;;;;;0.10;0.10;;;;;;;6.98;100.00;100418.09;5052903;28;20291;-53
2024/01/30 10:17:39;;;;;;;0.10;0.10;;;;;;;7.13;100.00;100405.31;5052853;28;20199;-52
2024/01/30 10:20:26;;;;;;;0.10;0.10;;;;;;;7.11;100.00;100396.59;5050872;28;20199;-52
2024/01/30 10:23:13;;;;;;;0.10;0.10;;;;;;;7.14;100.00;100396.53;5052593;28;20196;-52
2024/01/30 10:26:00;;;;;;;0.10;0.10;;;;;;;7.00;100.00;100395.19;5052574;28;20311;-52
2024/01/30 10:28:48;;;;;;;0.10;0.10;;;;;;;7.07;100.00;100409.91;5051958;28;20204;-53
2024/01/30 10:31:35;;;;;;;0.10;0.10;;;;;;;6.47;100.00;100393.19;5052649;28;20315;-52
2024/01/30 10:34:22;;;;;;;0.10;0.10;;;;;;;6.83;100.00;100393.91;5051336;28;20208;-52
2024/01/30 10:37:12;;;;;;;0.10;0.10;;;;;;;7.04;100.00;100397.69;5052571;28;20263;-53
2024/01/30 10:40:03;;;;;;;0.10;0.10;;;;;;;7.17;100.00;100377.13;5052525;28;20236;-53
2024/01/30 10:42:55;;;;;;;0.10;0.10;;;;;;;7.12;100.00;100373.75;5052332;28;20220;-53
2024/01/30 10:45:49;;;;;;;0.10;0.10;;;;;;;6.81;100.00;100377.28;5052509;28;20465;-52
2024/01/30 10:48:39;;;;;;;0.10;0.10;;;;;;;6.79;100.00;100379.13;5052099;28;20362;-52
2024/01/30 10:51:27;;;;;;;0.10;0.10;;;;;;;6.68;100.00;100378.56;5052397;28;20204;-53
2024/01/30 10:54:16;;;;;;;0.10;0.10;;;;;;;6.99;100.00;100382.94;5055178;28;20188;-52
2024/01/30 10:57:04;;;;;;;0.10;0.10;;;;;;;6.91;100.00;100372.63;5056409;28;20304;-53
2024/01/30 10:59:53;;;;;;;0.10;0.10;;;;;;;6.48;100.00;100386.16;5056191;28;20674;-52
2024/01/30 11:02:45;;;;;;;0.10;0.10;;;;;;;6.53;100.00;100384.25;5055873;28;20719;-52
2024/01/30 11:05:31;;;;;;;0.10;0.10;;;;;;;6.45;100.00;100380.97;5015244;28;20201;-52
2024/01/30 11:08:25;;;;;;;0.10;0.10;;;;;;;6.63;100.00;100384.84;5016259;28;20268;-52
2024/01/30 11:11:12;;;;;;;0.10;0.10;;;;;;;7.29;100.00;100379.38;5016402;28;20193;-52
2024/01/30 11:14:03;;;;;;;0.10;0.10;;;;;;;7.63;100.00;100392.38;5016277;28;20214;-52
2024/01/30 11:16:50;;;;;;;0.10;0.10;;;;;;;7.70;100.00;100371.91;4996522;28;20202;-53
2024/01/30 11:19:39;;;;;;;0.10;0.10;;;;;;;7.95;100.00;100369.34;4995367;28;20193;-52
2024/01/30 11:22:25;;;;;;;0.10;0.10;;;;;;;7.80;100.00;100372.47;4996402;28;20701;-53
2024/01/30 11:25:14;;;;;;;0.10;0.10;;;;;;;7.39;100.00;100367.63;5004158;28;20198;-52
2024/01/30 11:28:00;;;;;;;0.10;0.10;;;;;;;7.26;100.00;100353.13;5016142;28;20201;-52
2024/01/30 11:30:50;;;;;;;0.10;0.10;;;;;;;7.11;100.00;100362.34;5016077;28;20189;-52
2024/01/30 11:33:37;;;;;;;0.10;0.10;;;;;;;7.59;100.00;100366.13;5016054;28;20193;-53
2024/01/30 11:36:27;;;;;;;0.10;0.10;;;;;;;8.33;100.00;100373.28;5015825;28;20189;-52
2024/01/30 11:39:16;;;;;;;0.10;0.10;;;;;;;8.60;100.00;100377.63;5015953;28;20201;-53
2024/01/30 11:42:05;;;;;;;0.10;0.10;;;;;;;8.69;100.00;100359.72;5015455;28;20222;-53
2024/01/30 11:44:52;;;;;;;0.10;0.10;;;;;;;8.83;100.00;100373.25;5000599;28;20200;-52
2024/01/30 11:47:40;;;;;;;0.10;0.10;;;;;;;8.92;100.00;100359.72;4996066;28;20198;-52
2024/01/30 11:50:30;;;;;;;0.10;0.10;;;;;;;9.63;100.00;100366.59;5002437;28;20193;-53
2024/01/30 11:53:19;;;;;;;0.10;0.10;;;;;;;10.19;100.00;100344.81;5015622;28;20310;-52
2024/01/30 11:56:08;;;;;;;0.10;0.10;;;;;;;9.78;100.00;100336.00;5015285;28;20231;-52
2024/01/30 11:58:55;;;;;;;0.10;0.10;;;;;;;9.29;100.00;100334.50;5015359;28;20209;-52
2024/01/30 12:01:42;;;;;;;0.10;0.10;;;;;;;7.67;100.00;100335.97;5015229;28;20220;-52
2024/01/30 12:04:30;;;;;;;0.10;0.10;;;;;;;7.10;100.00;100336.91;5039454;28;20220;-52
2024/01/30 12:07:16;;;;;;;0.10;0.10;;;;;;;7.54;100.00;100346.97;5055098;28;20259;-52
2024/01/30 12:10:07;;;;;;;0.10;0.10;;;;;;;7.20;100.00;100339.25;5054992;28;20196;-52
2024/01/30 12:12:55;;;;;;;0.10;0.10;;;;;;;7.47;100.00;100349.81;5054724;28;20283;-52
2024/01/30 12:15:42;;;;;;;0.10;0.10;;;;;;;7.55;100.00;100348.69;5054786;28;20202;-52
2024/01/30 12:18:29;;;;;;;0.10;0.10;;;;;;;7.53;100.00;100337.31;5054778;28;20204;-52
2024/01/30 12:21:17;;;;;;;0.10;0.10;;;;;;;7.31;100.00;100337.16;5053803;28;20208;-52
2024/01/30 12:24:07;;;;;;;0.10;0.10;;;;;;;7.49;100.00;100339.19;5054212;28;20672;-52
2024/01/30 12:26:58;;;;;;;0.10;0.10;;;;;;;7.43;100.00;100329.75;5034582;28;20201;-52
2024/01/30 12:29:44;;;;;;;0.10;0.10;;;;;;;7.49;100.00;100339.19;5034668;28;20237;-53
2024/01/30 12:32:31;;;;;;;0.10;0.10;;;;;;;7.90;100.00;100332.53;5034587;28;20200;-52
2024/01/30 12:35:19;;;;;;;0.10;0.10;;;;;;;7.65;100.00;100331.66;5040717;28;20290;-52
2024/01/30 12:38:07;;;;;;;0.10;0.10;;;;;;;7.58;100.00;100332.78;5054451;28;20196;-52
2024/01/30 12:40:56;;;;;;;0.10;0.10;;;;;;;7.40;100.00;100328.94;5054372;28;20279;-52
2024/01/30 12:43:44;;;;;;;0.10;0.10;;;;;;;7.32;100.00;100339.72;5054047;28;20212;-52
2024/01/30 12:46:31;;;;;;;0.10;0.10;;;;;;;7.12;100.00;100337.72;5054137;28;20200;-53
2024/01/30 12:49:18;;;;;;;0.10;0.10;;;;;;;7.31;100.00;100330.09;5052850;28;20195;-53
2024/01/30 12:52:05;;;;;;;0.10;0.10;;;;;;;7.41;100.00;100330.66;5054114;28;20196;-52
2024/01/30 12:54:52;;;;;;;0.10;0.10;;;;;;;7.38;100.00;100320.25;5053966;28;20197;-53
2024/01/30 12:57:40;;;;;;;0.10;0.10;;;;;;;7.33;100.00;100325.63;5054103;28;20200;-52